Time;durP1;ratioP1;P1;durP2;ratioP2;P2;SDS_P1;SDS_P2;PMS_P1;PMS_P2;Temp;Humidity;BMP_temperature;BMP_pressure;BME280_temperature;BME280_humidity;BME280_pressure;Samples;Min_cycle;Max_cycle;Signal;HPM_P1;HPM_P2
2022/10/28 00:01:28;;;;;;;1.30;0.73;;;;;;;14.68;60.28;100466.22;5111310;28;20223;-64
2022/10/28 00:03:57;;;;;;;0.30;0.30;;;;;;;14.80;59.36;100459.44;5111207;28;20309;-58
2022/10/28 00:06:25;;;;;;;0.80;0.77;;;;;;;14.71;60.28;100460.88;5111186;28;20195;-65
2022/10/28 00:08:52;;;;;;;0.63;0.50;;;;;;;14.71;59.90;100460.88;5110926;28;20225;-64
2022/10/28 00:11:23;;;;;;;1.17;0.60;;;;;;;14.75;59.82;100455.53;5110737;28;20208;-64
2022/10/28 00:13:50;;;;;;;0.60;0.60;;;;;;;14.78;59.61;100455.34;5111331;28;20680;-58
2022/10/28 00:16:18;;;;;;;0.30;0.30;;;;;;;14.90;58.76;100454.50;5110675;28;20250;-58
2022/10/28 00:18:45;;;;;;;0.90;0.63;;;;;;;14.82;59.25;100452.44;5110889;28;20232;-64
2022/10/28 00:21:15;;;;;;;0.40;0.40;;;;;;;14.76;59.33;100457.19;5110604;28;20223;-64
2022/10/28 00:23:42;;;;;;;1.07;0.50;;;;;;;14.75;59.66;100447.78;5111149;28;20199;-64
2022/10/28 00:26:11;;;;;;;0.70;0.60;;;;;;;14.80;59.62;100443.97;5110627;28;20680;-64
2022/10/28 00:28:42;;;;;;;0.80;0.67;;;;;;;14.75;59.91;100442.66;5110673;28;20195;-64
2022/10/28 00:31:12;;;;;;;0.40;0.40;;;;;;;14.74;59.34;100441.81;5110645;28;20200;-58
2022/10/28 00:33:38;;;;;;;1.17;0.70;;;;;;;14.78;59.93;100445.03;5110698;28;20250;-58
2022/10/28 00:36:10;;;;;;;0.73;0.70;;;;;;;14.68;59.54;100440.50;5110476;28;20212;-58
2022/10/28 00:38:37;;;;;;;0.70;0.67;;;;;;;14.66;59.83;100444.94;5110423;28;20200;-59
2022/10/28 00:41:04;;;;;;;0.63;0.50;;;;;;;14.62;60.06;100446.06;5110352;28;20235;-64
2022/10/28 00:43:36;;;;;;;0.60;0.60;;;;;;;14.60;60.33;100442.78;5110669;28;20258;-64
2022/10/28 00:46:10;;;;;;;0.83;0.73;;;;;;;14.62;60.09;100448.63;5110402;28;20197;-58
2022/10/28 00:48:40;;;;;;;0.67;0.57;;;;;;;14.59;60.63;100446.25;5110568;28;20663;-64
2022/10/28 00:51:08;;;;;;;0.83;0.40;;;;;;;14.51;60.67;100443.34;5110396;28;20257;-59
2022/10/28 00:53:36;;;;;;;0.67;0.67;;;;;;;14.39;61.45;100441.59;5110412;28;20232;-58
2022/10/28 00:56:03;;;;;;;0.60;0.60;;;;;;;14.25;62.04;100448.50;5110158;28;20191;-60
2022/10/28 00:58:31;;;;;;;0.73;0.73;;;;;;;14.24;62.13;100446.00;5110383;28;20216;-58
2022/10/28 01:00:58;;;;;;;0.40;0.40;;;;;;;14.15;62.81;100444.84;5110266;28;20234;-65
2022/10/28 01:03:26;;;;;;;2.00;0.30;;;;;;;14.07;62.93;100439.38;5110640;28;20648;-58
2022/10/28 01:05:53;;;;;;;0.80;0.50;;;;;;;14.06;63.00;100442.91;5109860;28;20672;-59
2022/10/28 01:08:20;;;;;;;0.50;0.50;;;;;;;14.06;63.03;100448.03;5110216;28;20199;-58
2022/10/28 01:11:28;;;;;;;0.40;0.33;;;;;;;14.03;62.82;100448.25;5111216;28;20980;-58
2022/10/28 01:14:16;;;;;;;0.83;0.73;;;;;;;14.01;62.89;100445.75;5089263;28;20222;-65
2022/10/28 01:17:03;;;;;;;0.87;0.60;;;;;;;14.05;62.66;100451.53;5114200;28;20695;-58
2022/10/28 01:20:06;;;;;;;0.40;0.40;;;;;;;14.01;63.13;100444.94;5113788;28;20706;-64
2022/10/28 01:22:42;;;;;;;1.07;1.07;;;;;;;13.93;63.28;100442.03;5114198;27;20202;-64
2022/10/28 01:25:30;;;;;;;0.33;0.33;;;;;;;13.90;63.33;100452.50;5113904;28;20256;-59
2022/10/28 01:28:23;;;;;;;0.87;0.57;;;;;;;13.88;63.70;100446.66;5114243;28;20206;-64
2022/10/28 01:31:16;;;;;;;2.53;0.47;;;;;;;13.79;64.16;100436.03;5113701;28;20215;-58
2022/10/28 01:33:50;;;;;;;0.50;0.50;;;;;;;13.71;64.04;100443.41;5113836;28;20206;-58
2022/10/28 01:36:28;;;;;;;0.60;0.60;;;;;;;13.69;64.42;100440.09;5113713;28;20198;-65
2022/10/28 01:39:03;;;;;;;0.83;0.80;;;;;;;13.63;64.72;100444.81;5114199;28;20216;-58
2022/10/28 01:41:34;;;;;;;0.40;0.40;;;;;;;13.57;64.83;100439.13;5113771;28;20237;-65
2022/10/28 01:44:08;;;;;;;0.30;0.30;;;;;;;13.52;64.92;100436.03;5113766;28;20304;-65
2022/10/28 01:46:41;;;;;;;0.83;0.73;;;;;;;13.50;65.05;100440.47;5113713;28;20182;-58
2022/10/28 01:49:14;;;;;;;0.77;0.77;;;;;;;13.47;65.22;100443.22;5113731;28;20280;-58
2022/10/28 01:51:45;;;;;;;0.40;0.40;;;;;;;13.45;65.17;100445.06;5113589;27;20189;-64
2022/10/28 01:54:15;;;;;;;0.60;0.60;;;;;;;13.27;65.25;100449.59;5113528;28;20254;-58
2022/10/28 01:56:46;;;;;;;0.73;0.73;;;;;;;13.27;65.67;100449.59;5113644;28;20201;-58
2022/10/28 01:59:17;;;;;;;0.57;0.47;;;;;;;13.25;65.83;100448.00;5113485;28;20694;-58
2022/10/28 02:01:45;;;;;;;2.23;0.87;;;;;;;13.11;66.33;100456.53;5112984;28;20233;-58
2022/10/28 02:04:12;;;;;;;0.73;0.60;;;;;;;12.95;66.83;100453.28;5113306;28;20251;-58
2022/10/28 02:06:41;;;;;;;0.70;0.70;;;;;;;12.79;66.94;100454.16;5113268;28;20661;-64
2022/10/28 02:09:20;;;;;;;0.40;0.40;;;;;;;12.84;67.17;100452.16;5113081;28;20228;-58
2022/10/28 02:12:03;;;;;;;0.60;0.60;;;;;;;12.78;67.65;100442.25;5112780;28;20240;-64
2022/10/28 02:14:48;;;;;;;0.63;0.63;;;;;;;12.70;67.11;100449.59;5113196;28;20223;-58
2022/10/28 02:17:26;;;;;;;0.70;0.70;;;;;;;12.62;67.76;100446.63;5112981;28;20208;-64
2022/10/28 02:20:06;;;;;;;1.80;0.83;;;;;;;12.54;68.63;100444.53;5113115;27;20217;-65
2022/10/28 02:22:41;;;;;;;0.87;0.80;;;;;;;12.49;68.14;100450.84;5112035;28;20193;-64
2022/10/28 02:25:13;;;;;;;0.40;0.40;;;;;;;12.44;68.98;100439.09;5113143;28;20239;-58
2022/10/28 02:27:46;;;;;;;1.43;0.90;;;;;;;12.35;68.64;100449.09;5112873;28;20699;-59
2022/10/28 02:30:19;;;;;;;0.70;0.67;;;;;;;12.27;68.71;100452.06;5112604;28;20221;-58
2022/10/28 02:32:52;;;;;;;0.63;0.63;;;;;;;12.19;68.90;100449.16;5113016;28;20596;-58
2022/10/28 02:35:22;;;;;;;0.77;0.70;;;;;;;12.10;69.56;100447.09;5112963;28;20232;-58
2022/10/28 02:37:51;;;;;;;0.90;0.90;;;;;;;12.02;69.64;100444.16;5113204;28;20206;-58
2022/10/28 02:40:24;;;;;;;0.63;0.63;;;;;;;11.96;69.84;100451.28;5112826;28;20241;-64
2022/10/28 02:42:54;;;;;;;0.53;0.53;;;;;;;11.88;70.07;100453.44;5112866;28;20186;-58
2022/10/28 02:45:25;;;;;;;2.33;0.70;;;;;;;11.80;70.42;100447.88;5112545;28;20617;-64
2022/10/28 02:47:57;;;;;;;1.37;1.27;;;;;;;11.73;70.95;100452.50;5112490;28;20217;-58
2022/10/28 02:50:30;;;;;;;0.93;0.90;;;;;;;11.68;71.26;100453.69;5112182;28;20716;-65
2022/10/28 02:53:00;;;;;;;1.53;0.93;;;;;;;11.63;71.76;100453.09;5112521;28;20205;-58
2022/10/28 02:55:32;;;;;;;0.50;0.50;;;;;;;11.54;71.94;100441.63;5112625;28;20217;-65
2022/10/28 02:57:59;;;;;;;1.60;1.23;;;;;;;11.49;72.50;100449.56;5112182;28;20677;-58
2022/10/28 03:00:26;;;;;;;0.70;0.50;;;;;;;11.50;72.45;100451.22;5112375;28;20697;-65
2022/10/28 03:02:55;;;;;;;0.60;0.53;;;;;;;11.46;72.79;100448.88;5112262;28;20197;-63
2022/10/28 03:05:21;;;;;;;0.50;0.50;;;;;;;11.43;72.96;100452.47;5111922;28;20662;-58
2022/10/28 03:07:48;;;;;;;0.60;0.40;;;;;;;11.42;73.20;100448.22;5112060;28;20208;-58
2022/10/28 03:10:15;;;;;;;2.37;0.70;;;;;;;11.40;73.25;100451.78;5111886;28;20221;-64
2022/10/28 03:12:42;;;;;;;0.37;0.37;;;;;;;11.43;73.54;100451.59;5112075;28;20208;-64
2022/10/28 03:15:09;;;;;;;0.50;0.50;;;;;;;11.43;73.41;100455.03;5111690;28;20248;-64
2022/10/28 03:17:36;;;;;;;0.57;0.50;;;;;;;11.43;73.95;100451.59;5111830;28;20193;-58
2022/10/28 03:20:05;;;;;;;1.03;0.80;;;;;;;11.45;73.99;100458.31;5111651;28;20297;-64
2022/10/28 03:22:32;;;;;;;0.80;0.63;;;;;;;11.36;74.30;100456.25;5111717;28;20197;-58
2022/10/28 03:24:59;;;;;;;0.63;0.53;;;;;;;11.32;74.26;100454.78;5111537;28;20221;-65
2022/10/28 03:27:25;;;;;;;0.40;0.40;;;;;;;11.33;75.13;100453.84;5111787;28;20201;-64
2022/10/28 03:29:52;;;;;;;0.60;0.60;;;;;;;11.28;74.81;100455.81;5111537;28;20273;-64
2022/10/28 03:32:19;;;;;;;0.53;0.37;;;;;;;11.17;75.34;100447.88;5111650;28;20202;-58
2022/10/28 03:34:46;;;;;;;0.93;0.87;;;;;;;11.17;75.98;100453.00;5110522;28;20709;-64
2022/10/28 03:37:14;;;;;;;0.93;0.60;;;;;;;11.08;75.79;100451.75;5111478;28;20284;-64
2022/10/28 03:39:41;;;;;;;0.83;0.63;;;;;;;11.00;75.61;100459.84;5111220;28;20229;-58
2022/10/28 03:42:08;;;;;;;1.03;0.60;;;;;;;10.96;75.70;100455.78;5111303;28;20728;-58
2022/10/28 03:44:34;;;;;;;0.87;0.87;;;;;;;10.93;76.18;100466.16;5111189;28;20751;-65
2022/10/28 03:47:01;;;;;;;0.63;0.63;;;;;;;10.93;75.67;100471.28;5111298;28;20669;-58
2022/10/28 03:49:28;;;;;;;0.53;0.47;;;;;;;10.91;75.43;100478.25;5111351;28;20229;-64
2022/10/28 03:51:55;;;;;;;0.87;0.60;;;;;;;10.94;76.03;100472.97;5111069;28;20201;-58
2022/10/28 03:54:23;;;;;;;0.43;0.43;;;;;;;10.87;76.47;100469.06;5111229;28;20221;-58
2022/10/28 03:56:49;;;;;;;0.93;0.73;;;;;;;10.86;76.41;100465.66;5111448;27;20197;-58
2022/10/28 03:59:16;;;;;;;0.60;0.60;;;;;;;10.86;76.66;100459.72;5110802;28;20785;-65
2022/10/28 04:01:43;;;;;;;0.63;0.63;;;;;;;10.85;76.87;100468.31;5110984;28;20229;-58
2022/10/28 04:04:10;;;;;;;0.83;0.83;;;;;;;10.86;76.46;100459.72;5110840;28;20583;-58
2022/10/28 04:06:36;;;;;;;0.67;0.63;;;;;;;10.79;76.69;100454.09;5110885;28;20610;-58
2022/10/28 04:09:03;;;;;;;0.80;0.80;;;;;;;10.79;76.96;100459.22;5110719;28;20589;-58
2022/10/28 04:11:32;;;;;;;0.57;0.57;;;;;;;10.75;77.51;100462.00;5110692;28;20197;-65
2022/10/28 04:13:58;;;;;;;0.50;0.50;;;;;;;10.73;77.66;100463.81;5110884;28;20217;-58
2022/10/28 04:16:25;;;;;;;0.60;0.50;;;;;;;10.75;77.89;100462.00;5110882;28;20197;-58
2022/10/28 04:18:52;;;;;;;1.03;0.93;;;;;;;10.76;77.63;100455.97;5110744;28;20223;-64
2022/10/28 04:21:19;;;;;;;0.40;0.40;;;;;;;10.63;78.19;100464.28;5110482;28;20755;-65
2022/10/28 04:24:23;;;;;;;0.60;0.60;;;;;;;10.62;78.09;100461.81;5110645;28;20221;-65
2022/10/28 04:26:51;;;;;;;0.30;0.30;;;;;;;10.57;78.38;100468.88;5110667;28;20204;-64
2022/10/28 04:29:18;;;;;;;0.37;0.37;;;;;;;10.56;78.27;100468.06;5110956;28;20764;-58
2022/10/28 04:31:45;;;;;;;0.70;0.47;;;;;;;10.59;78.12;100465.34;5110259;28;20201;-58
2022/10/28 04:34:11;;;;;;;0.90;0.80;;;;;;;10.61;77.75;100465.25;5110260;28;20225;-64
2022/10/28 04:36:38;;;;;;;0.70;0.70;;;;;;;10.55;77.97;100466.38;5110294;28;20200;-64
2022/10/28 04:39:05;;;;;;;0.70;0.70;;;;;;;10.54;77.98;100469.84;5110627;28;20221;-61
2022/10/28 04:41:32;;;;;;;1.40;0.70;;;;;;;10.52;78.16;100456.31;5110291;28;20691;-65
2022/10/28 04:44:00;;;;;;;1.20;0.67;;;;;;;10.49;78.49;100456.47;5110397;28;20712;-65
2022/10/28 04:46:27;;;;;;;2.37;0.83;;;;;;;10.34;78.37;100462.34;5110047;28;20425;-58
2022/10/28 04:48:53;;;;;;;0.60;0.60;;;;;;;10.36;79.15;100460.56;5110503;28;20240;-63
2022/10/28 04:51:20;;;;;;;0.50;0.50;;;;;;;10.31;78.69;100459.94;5110061;28;20204;-64
2022/10/28 04:53:47;;;;;;;0.60;0.60;;;;;;;10.16;79.17;100458.94;5110170;28;20221;-64
2022/10/28 04:56:14;;;;;;;1.53;1.43;;;;;;;10.22;79.47;100460.38;5109989;28;20193;-61
2022/10/28 04:58:41;;;;;;;0.30;0.30;;;;;;;10.27;79.53;100460.97;5110153;28;20208;-64
2022/10/28 05:01:10;;;;;;;0.40;0.40;;;;;;;10.23;79.54;100459.44;5110228;28;20247;-64
2022/10/28 05:03:37;;;;;;;0.27;0.27;;;;;;;10.27;79.77;100460.97;5109914;28;20202;-63
2022/10/28 05:06:05;;;;;;;0.40;0.40;;;;;;;10.22;79.72;100462.91;5109924;28;20202;-64
2022/10/28 05:08:32;;;;;;;0.93;0.40;;;;;;;10.17;79.99;100465.69;5110037;28;20417;-65
2022/10/28 05:10:58;;;;;;;0.43;0.43;;;;;;;10.23;79.92;100469.69;5110085;28;20676;-64
2022/10/28 05:13:25;;;;;;;0.33;0.33;;;;;;;10.20;79.70;100471.47;5109952;28;20703;-64
2022/10/28 05:15:52;;;;;;;0.10;0.10;;;;;;;10.09;80.43;100473.72;5109959;28;20297;-58
2022/10/28 05:18:20;;;;;;;1.30;1.20;;;;;;;10.17;80.34;100481.03;5109978;28;20201;-64
2022/10/28 05:20:51;;;;;;;1.03;0.93;;;;;;;10.23;80.41;100479.91;5109864;28;20223;-58
2022/10/28 05:23:18;;;;;;;1.60;0.97;;;;;;;10.09;81.07;100494.16;5109933;28;20209;-65
2022/10/28 05:25:45;;;;;;;0.53;0.53;;;;;;;10.15;81.33;100491.34;5109623;28;20473;-58
2022/10/28 05:28:11;;;;;;;1.60;0.73;;;;;;;10.26;81.15;100488.25;5109753;28;20201;-64
2022/10/28 05:30:38;;;;;;;1.20;0.73;;;;;;;10.25;80.88;100488.34;5109507;28;20225;-58
2022/10/28 05:33:05;;;;;;;1.00;1.00;;;;;;;10.22;81.40;100489.31;5109787;28;20205;-64
2022/10/28 05:35:33;;;;;;;0.57;0.53;;;;;;;10.39;81.05;100493.63;5109841;28;20221;-58
2022/10/28 05:38:00;;;;;;;0.70;0.70;;;;;;;10.45;81.26;100501.00;5110128;28;20205;-64
2022/10/28 05:40:27;;;;;;;0.87;0.87;;;;;;;10.53;81.03;100498.91;5109510;28;20229;-65
2022/10/28 05:42:54;;;;;;;0.50;0.50;;;;;;;10.57;80.76;100499.56;5109599;28;20709;-58
2022/10/28 05:45:20;;;;;;;0.40;0.40;;;;;;;10.64;80.83;100499.16;5110096;28;20574;-65
2022/10/28 05:47:48;;;;;;;0.60;0.60;;;;;;;10.65;80.62;100500.84;5109844;28;20208;-64
2022/10/28 05:50:17;;;;;;;1.43;1.20;;;;;;;10.71;80.53;100501.44;5109578;28;20595;-64
2022/10/28 05:52:48;;;;;;;0.57;0.57;;;;;;;10.80;80.58;100500.97;5109631;28;20201;-65
2022/10/28 05:55:15;;;;;;;1.27;0.83;;;;;;;10.93;80.19;100504.56;5109663;28;20218;-64
2022/10/28 05:57:42;;;;;;;0.40;0.40;;;;;;;11.07;80.26;100504.69;5110652;28;20200;-58
2022/10/28 06:00:10;;;;;;;0.77;0.77;;;;;;;11.22;80.27;100510.72;5113454;28;20224;-58
2022/10/28 06:02:37;;;;;;;2.33;1.27;;;;;;;11.51;79.95;100514.31;5113677;28;20235;-65
2022/10/28 06:05:04;;;;;;;0.30;0.30;;;;;;;11.87;79.32;100520.97;5113318;28;20225;-64
2022/10/28 06:07:31;;;;;;;0.97;0.73;;;;;;;12.19;78.18;100520.94;5113412;28;20217;-58
2022/10/28 06:09:59;;;;;;;0.30;0.30;;;;;;;12.56;77.07;100516.28;5113423;28;20224;-58
2022/10/28 06:12:26;;;;;;;0.97;0.87;;;;;;;13.02;76.51;100519.53;5113263;28;20224;-65
2022/10/28 06:14:53;;;;;;;2.13;1.10;;;;;;;13.38;75.57;100522.59;5113314;28;20221;-58
2022/10/28 06:17:20;;;;;;;1.00;0.63;;;;;;;13.73;72.82;100530.69;5113057;28;20216;-58
2022/10/28 06:19:47;;;;;;;1.90;0.80;;;;;;;14.13;71.61;100531.56;5113362;28;20222;-64
2022/10/28 06:22:13;;;;;;;1.67;0.87;;;;;;;14.50;70.25;100524.06;5112885;28;20701;-65
2022/10/28 06:24:40;;;;;;;0.57;0.57;;;;;;;14.92;69.06;100524.72;5112867;28;20225;-58
2022/10/28 06:27:08;;;;;;;0.63;0.63;;;;;;;15.32;66.70;100530.56;5112847;28;20207;-65
2022/10/28 06:29:36;;;;;;;0.67;0.67;;;;;;;15.75;65.79;100531.94;5112670;28;20221;-61
2022/10/28 06:32:03;;;;;;;0.83;0.63;;;;;;;16.14;65.14;100535.19;5113087;28;20201;-65
2022/10/28 06:34:29;;;;;;;3.23;1.90;;;;;;;16.54;62.96;100540.84;5112874;28;20239;-58
2022/10/28 06:36:56;;;;;;;4.10;2.00;;;;;;;16.97;61.92;100535.88;5113085;28;20265;-59
2022/10/28 06:39:23;;;;;;;3.20;1.60;;;;;;;17.36;60.45;100538.94;5113069;28;20228;-58
2022/10/28 06:41:50;;;;;;;6.53;2.60;;;;;;;17.69;57.86;100537.25;5112862;28;20225;-58
2022/10/28 06:44:18;;;;;;;2.67;1.90;;;;;;;18.06;56.70;100539.53;5112833;27;20222;-65
2022/10/28 06:46:45;;;;;;;5.43;2.60;;;;;;;18.36;55.27;100545.78;5112806;28;20574;-65
2022/10/28 06:49:12;;;;;;;3.80;2.07;;;;;;;18.68;55.21;100550.91;5112626;28;20223;-58
2022/10/28 06:51:39;;;;;;;1.53;1.10;;;;;;;19.01;54.81;100542.09;5112344;28;20210;-59
2022/10/28 06:54:06;;;;;;;1.97;1.43;;;;;;;19.31;53.21;100543.03;5112589;28;20219;-58
2022/10/28 06:56:32;;;;;;;1.17;1.00;;;;;;;19.55;53.01;100546.13;5112398;28;20637;-59
2022/10/28 06:58:59;;;;;;;1.60;1.10;;;;;;;19.91;51.74;100546.47;5112582;28;20695;-65
2022/10/28 07:01:27;;;;;;;2.17;1.20;;;;;;;20.22;50.28;100539.38;5112217;28;20688;-65
2022/10/28 07:03:54;;;;;;;1.20;1.07;;;;;;;20.55;48.49;100539.91;5112296;28;20582;-59
2022/10/28 07:06:21;;;;;;;3.37;1.50;;;;;;;20.61;47.48;100541.94;5112661;28;20685;-65
2022/10/28 07:08:48;;;;;;;1.70;1.20;;;;;;;20.75;48.22;100541.50;5111931;28;20833;-59
2022/10/28 07:11:14;;;;;;;1.43;1.20;;;;;;;20.88;46.76;100537.75;5112223;28;20648;-59
2022/10/28 07:13:41;;;;;;;1.70;1.20;;;;;;;20.98;46.83;100541.97;5112094;28;20299;-65
2022/10/28 07:16:08;;;;;;;1.03;0.93;;;;;;;20.95;46.52;100542.28;5111881;28;20207;-58
2022/10/28 07:18:37;;;;;;;2.17;1.00;;;;;;;20.93;47.53;100545.97;5111890;28;20201;-59
2022/10/28 07:21:04;;;;;;;1.07;0.90;;;;;;;20.84;48.14;100539.84;5112073;28;20207;-66
2022/10/28 07:23:31;;;;;;;2.20;1.10;;;;;;;20.97;48.22;100545.56;5111895;28;20257;-59
2022/10/28 07:25:58;;;;;;;1.27;1.10;;;;;;;21.37;47.70;100534.03;5111657;28;20203;-66
2022/10/28 07:28:26;;;;;;;1.00;0.90;;;;;;;21.35;46.79;100538.56;5111968;28;20206;-58
2022/10/28 07:30:53;;;;;;;1.13;1.13;;;;;;;21.47;45.53;100527.00;5111762;28;20222;-65
2022/10/28 07:33:20;;;;;;;2.17;1.30;;;;;;;21.51;46.08;100537.13;5111952;28;20696;-59
2022/10/28 07:35:48;;;;;;;1.10;1.00;;;;;;;21.84;46.96;100538.25;5111376;28;20222;-65
2022/10/28 07:38:15;;;;;;;1.23;1.13;;;;;;;22.09;44.66;100541.91;5111759;28;20216;-66
2022/10/28 07:40:42;;;;;;;1.17;0.97;;;;;;;22.47;45.05;100545.16;5111249;28;20230;-59
2022/10/28 07:43:09;;;;;;;0.77;0.77;;;;;;;21.91;43.89;100550.53;5111559;28;20239;-59
2022/10/28 07:45:36;;;;;;;0.70;0.70;;;;;;;21.97;45.11;100543.94;5111193;27;20218;-59
2022/10/28 07:48:04;;;;;;;1.67;1.17;;;;;;;22.14;45.01;100550.09;5111373;28;20201;-59
2022/10/28 07:50:31;;;;;;;2.00;1.33;;;;;;;22.34;44.82;100546.41;5111565;28;20628;-59
2022/10/28 07:52:59;;;;;;;0.80;0.80;;;;;;;22.62;44.16;100553.25;5111507;28;20615;-65
2022/10/28 07:55:26;;;;;;;1.93;1.07;;;;;;;22.80;43.64;100552.22;5111333;28;20226;-59
2022/10/28 07:57:53;;;;;;;0.80;0.80;;;;;;;23.05;43.27;100547.16;5111171;28;20204;-59
2022/10/28 08:00:20;;;;;;;1.55;0.98;;;;;;;23.16;41.88;100552.13;5111512;28;20356;-59
2022/10/28 08:02:46;;;;;;;0.80;0.80;;;;;;;23.60;42.67;100549.31;5110879;28;20238;-65
2022/10/28 08:05:13;;;;;;;0.85;0.85;;;;;;;23.96;41.74;100549.09;5111178;28;20221;-66
2022/10/28 08:07:40;;;;;;;0.95;0.85;;;;;;;24.13;41.07;100545.50;5111136;28;20665;-59
2022/10/28 08:10:09;;;;;;;1.52;1.17;;;;;;;24.37;40.30;100542.06;5111075;28;20271;-59
2022/10/28 08:12:35;;;;;;;1.17;1.00;;;;;;;24.26;39.24;100544.19;5110739;28;20201;-66
2022/10/28 08:15:02;;;;;;;0.80;0.65;;;;;;;23.95;40.67;100547.47;5111105;28;20217;-59
2022/10/28 08:17:29;;;;;;;1.27;0.77;;;;;;;24.30;39.61;100546.31;5110757;28;20681;-66
2022/10/28 08:19:56;;;;;;;0.77;0.70;;;;;;;24.46;39.49;100544.69;5110686;28;20717;-60
2022/10/28 08:22:23;;;;;;;1.60;0.95;;;;;;;24.41;39.46;100542.56;5110633;28;20229;-59
2022/10/28 08:24:50;;;;;;;0.90;0.75;;;;;;;24.56;40.88;100542.72;5110630;28;20213;-59
2022/10/28 08:27:18;;;;;;;1.08;0.90;;;;;;;24.36;40.10;100544.84;5110923;28;20603;-59
2022/10/28 08:29:45;;;;;;;1.52;0.90;;;;;;;24.66;39.93;100550.38;5110661;28;20286;-60
2022/10/28 08:32:12;;;;;;;1.17;0.90;;;;;;;24.55;38.56;100544.53;5110473;28;20201;-59
2022/10/28 08:34:38;;;;;;;1.35;1.10;;;;;;;24.86;38.60;100551.66;5110532;28;20754;-59
2022/10/28 08:37:05;;;;;;;1.20;1.10;;;;;;;25.20;39.59;100548.78;5110411;28;20718;-60
2022/10/28 08:39:32;;;;;;;1.60;1.10;;;;;;;25.36;36.98;100550.50;5110669;28;20229;-67
2022/10/28 08:42:16;;;;;;;1.05;0.88;;;;;;;25.25;37.57;100550.91;5110170;28;20731;-59
2022/10/28 08:45:03;;;;;;;1.25;1.15;;;;;;;25.35;37.81;100548.88;5110449;28;20217;-66
2022/10/28 08:47:48;;;;;;;1.60;1.27;;;;;;;25.75;37.50;100547.81;5110706;28;20296;-66
2022/10/28 08:50:18;;;;;;;1.23;1.13;;;;;;;26.10;36.88;100547.44;5110633;28;20225;-66
2022/10/28 08:52:51;;;;;;;1.67;1.15;;;;;;;26.29;36.38;100544.31;5110278;28;20251;-59
2022/10/28 08:55:23;;;;;;;1.20;1.00;;;;;;;26.16;36.17;100549.38;5110476;28;20833;-60
2022/10/28 08:57:53;;;;;;;1.30;1.13;;;;;;;26.25;35.53;100548.28;5110358;28;20676;-59
2022/10/28 09:00:24;;;;;;;1.30;1.00;;;;;;;26.48;36.36;100543.00;5110370;28;20726;-60
2022/10/28 09:03:00;;;;;;;1.98;1.30;;;;;;;26.90;34.63;100544.22;5110203;28;20282;-67
2022/10/28 09:05:28;;;;;;;1.40;1.20;;;;;;;27.29;34.19;100543.94;5110049;28;20229;-60
2022/10/28 09:07:56;;;;;;;1.15;0.90;;;;;;;26.84;34.01;100543.13;5110170;28;20206;-66
2022/10/28 09:10:48;;;;;;;1.60;1.15;;;;;;;27.13;34.56;100538.88;5110297;28;20236;-66
2022/10/28 09:13:26;;;;;;;1.20;1.05;;;;;;;27.12;33.35;100532.00;5110143;28;20220;-66
2022/10/28 09:16:02;;;;;;;1.67;1.15;;;;;;;27.42;33.73;100529.31;5110146;28;20201;-60
2022/10/28 09:18:45;;;;;;;1.35;0.90;;;;;;;27.58;32.48;100529.09;5110057;28;20197;-60
2022/10/28 09:21:19;;;;;;;1.67;1.02;;;;;;;27.84;31.87;100530.38;5109999;28;20198;-67
2022/10/28 09:23:53;;;;;;;3.33;1.20;;;;;;;28.08;33.08;100527.38;5110031;28;20290;-66
2022/10/28 09:26:27;;;;;;;3.75;1.00;;;;;;;28.41;30.83;100529.41;5110018;28;20201;-64
2022/10/28 09:29:04;;;;;;;1.75;1.17;;;;;;;28.42;32.26;100525.81;5110278;28;20755;-66
2022/10/28 09:31:36;;;;;;;1.27;1.17;;;;;;;27.93;31.84;100521.38;5110999;28;20189;-59
2022/10/28 09:34:17;;;;;;;2.28;1.45;;;;;;;27.56;33.70;100519.78;5114000;28;20236;-66
2022/10/28 09:36:48;;;;;;;1.27;1.00;;;;;;;27.19;32.87;100513.72;5113764;28;20733;-66
2022/10/28 09:39:19;;;;;;;1.40;1.17;;;;;;;25.95;35.36;100516.75;5114088;28;20217;-59
2022/10/28 09:41:47;;;;;;;1.08;0.95;;;;;;;25.73;35.68;100513.13;5113814;28;20201;-66
2022/10/28 09:44:21;;;;;;;1.10;1.00;;;;;;;25.52;36.46;100513.75;5114079;27;20237;-66
2022/10/28 09:46:53;;;;;;;1.15;1.05;;;;;;;25.79;36.08;100510.78;5114039;28;20209;-62
2022/10/28 09:49:26;;;;;;;1.65;1.20;;;;;;;26.24;35.65;100504.72;5114083;28;20218;-60
2022/10/28 09:51:58;;;;;;;1.98;1.10;;;;;;;26.22;35.03;100506.69;5113797;28;20248;-66
2022/10/28 09:54:32;;;;;;;1.17;1.08;;;;;;;25.97;35.04;100514.75;5114086;28;20221;-59
2022/10/28 09:56:59;;;;;;;1.90;1.30;;;;;;;26.39;35.87;100500.31;5113582;28;20258;-66
2022/10/28 09:59:26;;;;;;;1.02;0.93;;;;;;;26.73;33.70;100498.97;5113640;28;20255;-66
2022/10/28 10:01:54;;;;;;;1.10;0.95;;;;;;;26.80;33.86;100492.03;5113562;28;20673;-66
2022/10/28 10:04:23;;;;;;;1.67;1.00;;;;;;;26.07;34.28;100498.81;5113475;28;20233;-59
2022/10/28 10:06:54;;;;;;;2.33;1.38;;;;;;;25.51;35.13;100488.56;5113356;28;20212;-59
2022/10/28 10:09:25;;;;;;;1.35;1.13;;;;;;;25.66;35.25;100490.44;5113192;28;20230;-66
2022/10/28 10:11:55;;;;;;;1.27;1.00;;;;;;;25.56;35.60;100489.84;5113299;28;20278;-66
2022/10/28 10:14:29;;;;;;;1.13;1.02;;;;;;;25.90;35.18;100492.88;5113477;28;20221;-66
2022/10/28 10:17:02;;;;;;;0.98;0.88;;;;;;;26.18;34.26;100484.47;5113606;28;20217;-58
2022/10/28 10:19:59;;;;;;;1.42;1.10;;;;;;;26.53;34.78;100487.41;5113222;28;20581;-59
2022/10/28 10:22:30;;;;;;;1.63;1.15;;;;;;;26.69;34.99;100476.72;5112983;28;20659;-59
2022/10/28 10:24:57;;;;;;;1.33;1.15;;;;;;;26.56;33.79;100481.81;5113183;28;20725;-59
2022/10/28 10:27:26;;;;;;;1.48;1.38;;;;;;;26.52;34.12;100486.59;5112942;28;20676;-59
2022/10/28 10:29:55;;;;;;;0.80;0.80;;;;;;;26.06;34.61;100485.88;5112891;28;20502;-59
2022/10/28 10:32:27;;;;;;;1.20;1.10;;;;;;;26.07;34.43;100477.03;5112228;28;20429;-66
2022/10/28 10:35:01;;;;;;;2.08;1.10;;;;;;;26.24;34.25;100478.50;5113099;28;20229;-66
2022/10/28 10:37:30;;;;;;;1.83;1.00;;;;;;;26.39;35.59;100471.47;5112879;28;20249;-65
2022/10/28 10:40:07;;;;;;;1.10;0.98;;;;;;;26.64;34.40;100463.34;5112910;28;20278;-59
2022/10/28 10:42:33;;;;;;;1.17;1.08;;;;;;;26.76;33.55;100467.16;5112369;28;20201;-59
2022/10/28 10:45:19;;;;;;;1.52;1.20;;;;;;;26.64;33.68;100468.59;5112135;28;20344;-65
2022/10/28 10:47:47;;;;;;;1.30;1.20;;;;;;;25.84;36.06;100466.59;5112529;28;20245;-65
2022/10/28 10:50:28;;;;;;;0.80;0.80;;;;;;;26.10;35.25;100458.31;5112742;28;20726;-59
2022/10/28 10:52:57;;;;;;;1.02;0.93;;;;;;;26.25;34.46;100464.41;5112381;28;20197;-65
2022/10/28 10:55:31;;;;;;;1.13;1.02;;;;;;;26.24;34.91;100461.94;5112329;28;20221;-59
2022/10/28 10:57:58;;;;;;;1.13;1.02;;;;;;;26.35;34.93;100466.75;5112592;28;20720;-59
2022/10/28 11:00:31;;;;;;;1.80;1.60;;;;;;;26.17;34.32;100461.84;5112263;28;20213;-66
2022/10/28 11:03:01;;;;;;;1.10;1.00;;;;;;;26.00;34.04;100460.38;5112441;28;20229;-59
2022/10/28 11:05:28;;;;;;;1.80;1.30;;;;;;;25.96;34.32;100455.50;5112215;27;20687;-59
2022/10/28 11:07:56;;;;;;;1.35;1.10;;;;;;;25.91;34.92;100462.25;5112000;28;20201;-59
2022/10/28 11:10:26;;;;;;;1.38;1.17;;;;;;;26.06;35.21;100459.66;5111999;28;20221;-65
2022/10/28 11:12:55;;;;;;;1.42;1.08;;;;;;;26.35;34.69;100458.88;5112060;28;20370;-58
2022/10/28 11:15:25;;;;;;;4.47;2.10;;;;;;;25.88;35.42;100452.94;5111947;28;20221;-58
2022/10/28 11:17:57;;;;;;;1.15;0.90;;;;;;;26.13;34.58;100455.34;5112318;28;20225;-66
2022/10/28 11:20:29;;;;;;;10.25;4.82;;;;;;;25.95;34.55;100451.25;5111879;28;20236;-65
2022/10/28 11:23:18;;;;;;;2.45;1.80;;;;;;;25.82;34.27;100448.41;5111907;28;20581;-65
2022/10/28 11:25:49;;;;;;;5.65;2.83;;;;;;;25.75;34.74;100447.47;5111952;28;20235;-66
2022/10/28 11:28:35;;;;;;;1.30;1.20;;;;;;;26.16;33.89;100449.75;5111657;28;20458;-59
2022/10/28 11:31:20;;;;;;;0.90;0.90;;;;;;;25.59;34.32;100442.34;5111882;28;20635;-59
2022/10/28 11:34:01;;;;;;;2.50;1.20;;;;;;;25.87;34.83;100446.06;5111595;28;20241;-59
2022/10/28 11:36:37;;;;;;;6.78;2.47;;;;;;;25.67;34.62;100437.03;5111619;28;20217;-65
2022/10/28 11:39:20;;;;;;;4.05;2.03;;;;;;;25.77;34.31;100432.34;5111670;28;20221;-59